createdAt,value
2022-11-17T00:00:38.926Z,0.77
2022-11-17T00:03:05.550Z,0.76
2022-11-17T00:05:32.246Z,0.75
2022-11-17T00:07:58.804Z,0.62
2022-11-17T00:10:25.444Z,0.73
2022-11-17T00:13:10.498Z,0.72
2022-11-17T00:15:37.124Z,0.76
2022-11-17T00:18:22.309Z,0.71
2022-11-17T00:21:07.855Z,0.79
2022-11-17T00:23:50.197Z,0.69
2022-11-17T00:26:21.597Z,0.78
2022-11-17T00:28:55.592Z,0.83
2022-11-17T00:31:41.633Z,0.82
2022-11-17T00:34:13.613Z,0.73
2022-11-17T00:36:45.590Z,0.75
2022-11-17T00:39:13.460Z,0.71
2022-11-17T00:41:40.420Z,0.71
2022-11-17T00:44:08.121Z,0.71
2022-11-17T00:46:37.122Z,0.69
2022-11-17T00:49:05.384Z,0.75
2022-11-17T00:51:32.334Z,0.61
2022-11-17T00:53:59.058Z,0.59
2022-11-17T00:56:26.187Z,0.55
2022-11-17T00:58:53.226Z,0.53
2022-11-17T01:01:20.673Z,0.57
2022-11-17T01:03:47.885Z,0.60
2022-11-17T01:06:20.267Z,0.58
2022-11-17T01:08:47.057Z,0.66
2022-11-17T01:11:19.143Z,0.48
2022-11-17T01:13:47.406Z,0.46
2022-11-17T01:16:18.123Z,0.48
2022-11-17T01:18:48.076Z,0.57
2022-11-17T01:21:19.571Z,0.60
2022-11-17T01:23:47.503Z,0.65
2022-11-17T01:26:20.004Z,0.72
2022-11-17T01:28:47.712Z,0.63
2022-11-17T01:31:22.804Z,0.70
2022-11-17T01:33:50.079Z,0.72
2022-11-17T01:36:19.485Z,0.70
2022-11-17T01:38:46.597Z,0.65
2022-11-17T01:41:25.270Z,0.67
2022-11-17T01:44:19.132Z,0.57
2022-11-17T01:46:46.363Z,0.66
2022-11-17T01:49:17.681Z,0.62
2022-11-17T01:51:48.617Z,0.65
2022-11-17T01:54:19.794Z,0.65
2022-11-17T01:56:49.699Z,0.67
2022-11-17T01:59:24.074Z,0.52
2022-11-17T02:01:57.662Z,0.59
2022-11-17T02:04:35.529Z,0.46
2022-11-17T02:07:09.338Z,0.48
2022-11-17T02:09:39.112Z,0.46
2022-11-17T02:12:09.085Z,0.51
2022-11-17T02:14:36.099Z,0.48
2022-11-17T02:17:10.292Z,0.40
2022-11-17T02:19:42.533Z,0.27
2022-11-17T02:22:27.488Z,0.29
2022-11-17T02:25:21.742Z,0.30
2022-11-17T02:28:10.432Z,0.29
2022-11-17T02:31:02.635Z,0.26
2022-11-17T02:33:41.059Z,0.19
2022-11-17T02:36:19.260Z,0.18
2022-11-17T02:39:06.985Z,0.19
2022-11-17T02:41:50.211Z,0.21
2022-11-17T02:44:42.720Z,0.23
2022-11-17T02:47:17.695Z,0.30
2022-11-17T02:49:53.581Z,0.34
2022-11-17T02:52:20.337Z,0.45
2022-11-17T02:54:46.904Z,0.52
2022-11-17T02:57:34.779Z,0.42
2022-11-17T03:00:13.440Z,0.42
2022-11-17T03:03:15.104Z,0.47
2022-11-17T03:06:10.429Z,0.37
2022-11-17T03:09:09.937Z,0.31
2022-11-17T03:12:09.480Z,0.43
2022-11-17T03:14:57.492Z,0.39
2022-11-17T03:17:31.527Z,0.39
2022-11-17T03:20:04.558Z,0.26
2022-11-17T03:22:41.686Z,0.24
2022-11-17T03:25:14.093Z,0.24
2022-11-17T03:27:47.233Z,0.26
2022-11-17T03:30:15.473Z,0.11
2022-11-17T03:32:49.229Z,0.17
2022-11-17T03:35:20.901Z,0.16
2022-11-17T03:38:01.442Z,0.20
2022-11-17T03:40:31.092Z,0.15
2022-11-17T03:43:02.230Z,0.21
2022-11-17T03:45:32.404Z,0.09
2022-11-17T03:48:14.583Z,0.03
2022-11-17T03:50:49.386Z,0.13
2022-11-17T03:53:16.350Z,-0.04
2022-11-17T03:56:10.872Z,0.04
2022-11-17T03:58:47.697Z,0.06
2022-11-17T04:01:14.866Z,-0.01
2022-11-17T04:03:41.481Z,0.08
2022-11-17T04:06:08.166Z,0.06
2022-11-17T04:08:34.750Z,-0.06
2022-11-17T04:11:20.075Z,-0.02
2022-11-17T04:14:05.522Z,0.06
2022-11-17T04:16:32.102Z,0.12
2022-11-17T04:18:59.186Z,0.02
2022-11-17T04:21:26.303Z,-0.10
2022-11-17T04:23:52.905Z,-0.07
2022-11-17T04:26:42.891Z,-0.05
2022-11-17T04:29:09.455Z,-0.02
2022-11-17T04:31:36.050Z,0.01
2022-11-17T04:34:04.791Z,-0.04
2022-11-17T04:36:35.581Z,-0.11
2022-11-17T04:39:03.245Z,-0.06
2022-11-17T04:41:49.237Z,-0.16
2022-11-17T04:44:17.600Z,-0.13
2022-11-17T04:46:45.928Z,-0.08
2022-11-17T04:49:14.526Z,-0.06
2022-11-17T04:51:41.651Z,-0.01
2022-11-17T04:54:09.684Z,0.04
2022-11-17T04:56:36.900Z,0.08
2022-11-17T04:59:03.846Z,0.08
2022-11-17T05:01:31.070Z,0.08
2022-11-17T05:04:03.352Z,-0.01
2022-11-17T05:06:53.017Z,-0.12
2022-11-17T05:09:19.631Z,-0.15
2022-11-17T05:12:04.713Z,-0.05
2022-11-17T05:14:31.400Z,-0.12
2022-11-17T05:17:09.933Z,-0.20
2022-11-17T05:19:42.371Z,-0.23
2022-11-17T05:22:28.804Z,-0.27
2022-11-17T05:24:55.953Z,-0.18
2022-11-17T05:27:23.752Z,-0.13
2022-11-17T05:29:50.615Z,-0.20
2022-11-17T05:32:17.784Z,-0.11
2022-11-17T05:34:44.454Z,-0.17
2022-11-17T05:37:11.225Z,-0.06
2022-11-17T05:39:37.900Z,-0.12
2022-11-17T05:42:04.661Z,-0.05
2022-11-17T05:44:31.221Z,-0.06
2022-11-17T05:46:57.916Z,-0.05
2022-11-17T05:49:24.480Z,-0.08
2022-11-17T05:51:52.888Z,-0.19
2022-11-17T05:54:20.160Z,-0.20
2022-11-17T05:56:49.271Z,-0.09
2022-11-17T05:59:28.033Z,-0.22
2022-11-17T06:02:01.106Z,-0.22
2022-11-17T06:04:28.786Z,-0.27
2022-11-17T06:06:59.444Z,-0.27
2022-11-17T06:09:28.858Z,-0.37
2022-11-17T06:11:56.189Z,-0.31
2022-11-17T06:14:25.128Z,-0.38
2022-11-17T06:16:56.822Z,-0.42
2022-11-17T06:19:28.966Z,-0.35
2022-11-17T06:22:11.812Z,-0.27
2022-11-17T06:24:40.614Z,-0.23
2022-11-17T06:27:07.533Z,-0.23
2022-11-17T06:29:36.168Z,-0.29
2022-11-17T06:32:06.153Z,-0.25
2022-11-17T06:34:34.245Z,-0.19
2022-11-17T06:37:00.822Z,-0.42
2022-11-17T06:39:27.417Z,-0.42
2022-11-17T14:32:11.786Z,-0.92
2022-11-17T14:34:39.194Z,-0.84
2022-11-17T14:37:08.849Z,-0.75
2022-11-17T14:39:38.732Z,-0.66
2022-11-17T14:42:06.163Z,-0.60
2022-11-17T14:44:33.991Z,-0.67
2022-11-17T14:47:01.619Z,-0.75
2022-11-17T14:49:29.922Z,-0.83
2022-11-17T14:51:59.731Z,-0.95
2022-11-17T14:54:27.812Z,-0.88
2022-11-17T14:56:55.808Z,-0.83
2022-11-17T14:59:26.989Z,-0.77
2022-11-17T15:01:55.002Z,-0.83
2022-11-17T15:07:19.264Z,-0.71
2022-11-17T15:09:46.646Z,-0.82
2022-11-17T15:12:14.628Z,-0.73
2022-11-17T15:14:42.581Z,-0.70
2022-11-17T15:17:14.731Z,-0.72
2022-11-17T15:19:43.492Z,-0.62
2022-11-17T15:22:14.276Z,-0.68
2022-11-17T15:24:44.014Z,-0.64
2022-11-17T15:27:13.046Z,-0.78
2022-11-17T15:29:41.067Z,-0.80
2022-11-17T15:32:12.767Z,-0.80
2022-11-17T15:34:41.768Z,-0.76
2022-11-17T15:37:13.267Z,-0.87
2022-11-17T15:39:41.591Z,-0.83
2022-11-17T15:42:11.196Z,-0.97
2022-11-17T15:44:39.433Z,-0.92
2022-11-17T15:47:07.515Z,-0.92
2022-11-17T15:49:36.533Z,-0.99
2022-11-17T15:52:05.697Z,-0.91
2022-11-17T15:54:34.744Z,-0.87
2022-11-17T15:57:03.783Z,-0.93
2022-11-17T15:59:31.636Z,-0.88
2022-11-17T16:02:00.637Z,-0.92
2022-11-17T16:04:29.202Z,-0.89
2022-11-17T16:06:57.416Z,-0.93
2022-11-17T16:09:25.222Z,-0.90
2022-11-17T16:11:53.210Z,-0.92
2022-11-17T16:14:22.493Z,-1.04
2022-11-17T16:16:52.621Z,-0.96
2022-11-17T16:19:22.477Z,-0.95
2022-11-17T16:21:52.241Z,-0.99
2022-11-17T16:24:22.098Z,-0.98
2022-11-17T16:26:52.673Z,-0.93
2022-11-17T16:29:23.333Z,-1.02
2022-11-17T16:31:59.523Z,-0.96
2022-11-17T16:34:28.819Z,-0.91
2022-11-17T16:36:56.838Z,-0.85
2022-11-17T16:39:28.302Z,-0.93
2022-11-17T16:41:57.385Z,-0.85
2022-11-17T16:44:25.539Z,-0.81
2022-11-17T16:46:53.672Z,-0.79
2022-11-17T16:49:24.552Z,-0.78
2022-11-17T16:51:55.748Z,-0.90
2022-11-17T16:54:23.964Z,-0.88
2022-11-17T16:56:51.975Z,-0.81
2022-11-17T16:59:25.680Z,-0.78
2022-11-17T17:01:57.614Z,-0.91
2022-11-17T17:04:24.461Z,-0.89
2022-11-17T17:06:51.105Z,-0.91
2022-11-17T17:09:21.775Z,-0.93
2022-11-17T17:11:51.372Z,-0.90
2022-11-17T17:14:17.935Z,-0.91
2022-11-17T17:16:44.496Z,-0.88
2022-11-17T17:19:12.835Z,-0.82
2022-11-17T17:21:40.764Z,-0.78
2022-11-17T17:24:08.236Z,-0.88
2022-11-17T17:26:36.218Z,-0.87
2022-11-17T17:29:04.529Z,-0.84
2022-11-17T17:31:33.838Z,-0.88
2022-11-17T17:34:00.740Z,-0.86
2022-11-17T17:36:28.079Z,-0.84
2022-11-17T17:38:56.494Z,-0.90
2022-11-17T17:41:27.989Z,-0.87
2022-11-17T17:43:58.436Z,-0.92
2022-11-17T17:46:26.216Z,-0.86
2022-11-17T17:48:52.936Z,-0.88
2022-11-17T17:51:21.227Z,-0.87
2022-11-17T17:53:50.149Z,-0.88
2022-11-17T17:56:19.222Z,-0.96
2022-11-17T17:58:48.642Z,-1.01
2022-11-17T18:01:19.096Z,-0.96
2022-11-17T18:03:48.117Z,-1.04
2022-11-17T18:06:16.599Z,-1.10
2022-11-17T18:08:43.497Z,-1.08
2022-11-17T18:11:23.583Z,-1.18
2022-11-17T18:13:52.015Z,-1.18
2022-11-17T18:16:24.669Z,-1.14
2022-11-17T22:56:20.343Z,-1.61
2022-11-17T22:58:50.067Z,-1.57
2022-11-17T23:01:16.678Z,-1.57
2022-11-17T23:03:43.386Z,-1.56
2022-11-17T23:06:09.950Z,-1.58
2022-11-17T23:08:36.481Z,-1.56
2022-11-17T23:11:34.784Z,-1.52
2022-11-17T23:13:51.522Z,-1.52
2022-11-17T23:16:18.231Z,-1.52
2022-11-17T23:18:44.799Z,-1.68
2022-11-17T23:21:11.604Z,-1.77
2022-11-17T23:23:40.312Z,-1.69
2022-11-17T23:26:10.370Z,-1.65
2022-11-17T23:28:38.840Z,-1.61
2022-11-17T23:31:16.106Z,-1.61
2022-11-17T23:33:44.749Z,-1.66
2022-11-17T23:36:20.271Z,-1.62
2022-11-17T23:38:47.899Z,-1.70
2022-11-17T23:41:16.252Z,-1.80
2022-11-17T23:43:43.385Z,-1.83
2022-11-17T23:46:15.626Z,-1.86
2022-11-17T23:48:43.280Z,-2.01
2022-11-17T23:51:12.735Z,-1.97
2022-11-17T23:53:39.684Z,-2.00
2022-11-17T23:56:06.830Z,-2.01
2022-11-17T23:58:33.789Z,-2.06
